Hlavní strana
METAR-TAF:

METAR-TAF

Letiště :

Mezinárodní letiště Boryspil

Boryspil, Ukrajina

zeměpisná šířka: 50-20N, zeměpisná délka: 030-58E, výška: 121 m

Aktuální stav počasí

Zpráva byla vytvořena před 36 minutami, v 00:30 UTC
Západoseverozápadní vítr 6 kt
Teplota 3°C
Vlhkost vzduchu 87%
Tlak 1018 hPa
Viditelnost 10 km a více
Žádná oblačnost pod 1500 m, nevyskytují se cumulonimby.

METAR: UKBB 090030Z 30003MPS CAVOK 03/01 Q1018 R18L/CLRD// NOSIG

Čas: 04:06 (01:06 UTC)

Předpověď počasí

Zpráva byla vytvořena před 2 hodinami a 6 minutami, v 23:00 UTC
Předpověď platná od 09 v 00 UTC do 09 v 24 UTC
Západní vítr 8 kt
Viditelnost 10 km a více
Oblačno až skoro zataženo ve výšce 2500 ft
Změna
od 09 v 06 UTC do 09 v 08 UTC
Severoseverozápadní vítr 10 kt s nárazy do 21 kt
Změna
od 09 v 16 UTC do 09 v 18 UTC
vítr z různých směrů 2 kt

TAF: UKBB 082300Z 0900/0924 28004MPS 9999 BKN025 TX14/0912Z TN02/0903Z BECMG 0906/0908 33005G11MPS BECMG 0916/0918 VRB01MPS

Stav a předpovědi počasí z více než 4 000 letišť (zprávy METAR a TAF).

Červené a žluté tečky na mapě představují dostupné meteorologické stanice.

Když kurzor umístíte na tečku, zobrazí se název stanice.

Pak kliknutím zobrazíte stav a předpověď počasí.

Chcete-li změnit mapu, kliknutím na zelené tlačítko se znaménkem +mapu přiblížíte, kliknutím na zelené tlačítko se znaménkem – mapu oddálíte a kliknutím na zelené šipky přejdete na sousední mapy.


METAR-TAF: